Imane Airport


Codes: AYII/IMN
Name: Imane Airport
City: Imane
Country: Papua New Guinea
Elevation: 3860 ft.

Photos at Imane Airport


   Photos courtesy of SpottingLog. You can add your own sightings and photos by signing up for a free trial today.



No photos found.

Weather at Imane Airport


Time (UTC)DescriptionTempratureWindCloud coverageVisibilityPressureHumidity
16-Jun-2024 09:00Light Rain14°C0 mph, NW79%10000m1016hPa96%
16-Jun-2024 12:00Broken Clouds14°C0 mph, W74%10000m1016hPa97%
16-Jun-2024 15:00Scattered Clouds13°C0 mph, S36%10000m1017hPa96%
16-Jun-2024 18:00Scattered Clouds11°C2 mph, SW27%10000m1016hPa96%
16-Jun-2024 21:00Few Clouds11°C2 mph, SW16%10000m1017hPa91%
17-Jun-2024 00:00Few Clouds19°C2 mph, E17%10000m1016hPa62%
17-Jun-2024 03:00Few Clouds22°C7 mph, NE15%10000m1012hPa51%
17-Jun-2024 06:00Light Rain18°C4 mph, NE37%8692m1012hPa79%
17-Jun-2024 09:00Light Rain14°C2 mph, W52%10000m1015hPa95%
17-Jun-2024 12:00Light Rain13°C2 mph, NE69%10000m1017hPa96%
17-Jun-2024 15:00Light Rain12°C0 mph, SE61%10000m1017hPa95%
17-Jun-2024 18:00Broken Clouds11°C2 mph, SW61%10000m1016hPa94%
17-Jun-2024 21:00Broken Clouds11°C2 mph, SW76%10000m1017hPa92%
18-Jun-2024 00:00Broken Clouds18°C4 mph, E54%10000m1016hPa64%
18-Jun-2024 03:00Clear Sky20°C7 mph, E0%10000m1013hPa52%
18-Jun-2024 06:00Clear Sky19°C7 mph, NE9%10000m1011hPa61%
18-Jun-2024 09:00Scattered Clouds12°C0 mph, W33%10000m1015hPa96%
18-Jun-2024 12:00Broken Clouds12°C2 mph, SW65%10000m1017hPa97%
18-Jun-2024 15:00Broken Clouds11°C0 mph, SW53%10000m1016hPa95%
18-Jun-2024 18:00Scattered Clouds11°C2 mph, S47%10000m1015hPa92%
18-Jun-2024 21:00Scattered Clouds12°C2 mph, SE36%8276m1016hPa91%
19-Jun-2024 00:00Broken Clouds17°C4 mph, E52%10000m1015hPa72%
19-Jun-2024 03:00Light Rain17°C7 mph, E100%10000m1013hPa76%
19-Jun-2024 06:00Light Rain15°C4 mph, E100%6165m1013hPa90%
19-Jun-2024 09:00Light Rain14°C2 mph, NE100%7426m1014hPa97%
19-Jun-2024 12:00Light Rain13°C0 mph, NE94%4442m1016hPa98%
19-Jun-2024 15:00Light Rain13°C2 mph, NE98%6049m1015hPa98%
19-Jun-2024 18:00Overcast Clouds12°C2 mph, S96%10000m1015hPa97%
19-Jun-2024 21:00Overcast Clouds12°C2 mph, SW87%10000m1016hPa94%
20-Jun-2024 00:00Broken Clouds18°C4 mph, E83%10000m1015hPa71%
20-Jun-2024 03:00Light Rain17°C4 mph, E97%10000m1013hPa78%
20-Jun-2024 06:00Light Rain16°C4 mph, E97%10000m1012hPa83%
20-Jun-2024 09:00Light Rain14°C2 mph, NE100%10000m1015hPa91%
20-Jun-2024 12:00Light Rain13°C0 mph, E100%10000m1017hPa94%
20-Jun-2024 15:00Overcast Clouds12°C2 mph, SW99%8533m1015hPa96%
20-Jun-2024 18:00Overcast Clouds12°C2 mph, SW99%10000m1015hPa95%
20-Jun-2024 21:00Broken Clouds12°C2 mph, SW84%10000m1016hPa94%
21-Jun-2024 00:00Overcast Clouds14°C2 mph, E92%10000m1016hPa90%
21-Jun-2024 03:00Light Rain16°C4 mph, E99%10000m1013hPa84%
21-Jun-2024 06:00Light Rain15°C4 mph, E99%8100m1013hPa91%